Detall de PIREP

Printer-friendly versionPDF version

[2014/04/26 16:49:00]
Flight IATA:CT1060
Pilot Number:026
Company ICAO:CAT
Aircraft Type:DC85/A
PAX:0
Aircraft Registration:CARGO
Departing Airport: LFMP
Destination Airport: LEAL
Alternate Airport:LEIB
Online: VATSIM
Route:BGR UN855 SISMO UZ237 OKITI UM603 GERVU
Flight Level:F290
No Slew and time accel
No pause
Crash detect
Detect pilot in Cockpit between each 30 and 45 minutes
16:49 Zero fuel Weight: 187231 Lbs, Fuel Weight: 29991 Lbs
16:49 VATSIM:LFMP 261630Z 13008KT 9999 FEW040 SCT140 21/07 Q1010 NOSIG
16:49 VATSIM:LEAL 261630Z 17011KT 130V210 9999 FEW040 23/11 Q1013 NOSIG
16:49 ALMOGAVERS ROUTE
17:00 Take-off
17:00 Take off Weight: 216196 Lbs
17:00 Wind: 132º @ 011 Knots Heading: 328º
17:00 POS N42º 45´ 13´´ E002º 51´ 43´´
17:00 Gear Up: 175 Knots
17:00 Flaps:2 at 175 Knots
17:02 Flaps:1 at 220 Knots
17:02 Flaps:0 at 216 Knots
17:11 TOC
17:11 Fuel Weight:25089 Lb
17:15 Wind:130º@043 Knots Heading: 172º Ground Speed: 468 Knots Altitude 28904 ft
17:30 Wind:130º@043 Knots Heading: 206º Ground Speed: 480 Knots Altitude 28907 ft
17:38 TOD
17:38 Fuel Weight: 17813 Lb
17:45 Wind:130º@038 Knots Heading: 244º Ground Speed: 377 Knots Altitude 18782 ft
17:54 Flaps:1 at 202 Knots
18:00 Wind:171º@015 Knots Heading: 278º Ground Speed: 185 Knots Altitude 3316 ft
18:02 Flaps:2 at 156 Knots
18:03 Gear Down: 148 Knots
18:04 Flaps:3 at 164 Knots
18:06 Flaps:4 at 134 Knots
18:06 TouchDown:Rate -119 ft/min Speed: 117 Knots
18:07 VATSIM:LEAL 261730Z 17009KT 140V210 9999 FEW040 22/11 Q1013 NOSIG
18:07 Land
18:07 Wind:186º@009 Knots
18:07 Heading: 103º
18:07 Flight Duration: 01:07
18:07 Landing Weight: 202405 Lbs
18:07 POS N38º 16´ 57´´ W000º 33´ 42´´
18:19 Parking brakes on
18:19 Block to Block Duration: 01:19
18:19 Final Fuel: 14272 Lbls
18:19 Spent Fuel: 15718 Lbls
18:19 Flight Length: 406 NM
18:19 TOD Land Length: 133 NM

Exportar CSV

Powered by Drupal - Modified by Danger4k